• Join FlightAware (Why Join?)
  • Login
  • US Flag 
09:16AM EDT


 

Airport Tracker/Info


-or-


 

Live Flight TrackerFlight Track Log ✈ ASA128 ✈ 06-Jul-2014 ✈ PAFA / FAI - KSEA

Flight Track Log - Related Links

Times and Time Zones

All times are in EDT time to prevent confusion due to time zone crossing. See the ASA128 flight status page for this flight to view local times or setup timezone preferences in your user account.

Time Position Orientation Groundspeed Altitude Reporting Facility
EDT Latitude Longitude Course Direction KTS MPH feet Rate Location/Type
05:39AM 64.7500 -147.8167 124° Southeast 190 219 3,400  Level Anchorage Center
05:40AM 64.7167 -147.7000 124° Southeast 220 253 6,300 2,700 Climbing Anchorage Center
05:41AM 64.6833 -147.5667 120° Southeast 250 288 8,800 2,460 Climbing Anchorage Center
05:42AM 64.6333 -147.4167 128° Southeast 290 334 11,300 2,400 Climbing Anchorage Center
05:43AM 64.5833 -147.2333 122° Southeast 340 391 13,700 2,400 Climbing Anchorage Center
05:44AM 64.3314 -146.3471 124° Southeast  Level FlightAware Approximate
05:44AM 64.5333 -147.0333 120° Southeast 380 437 16,200  Level Anchorage Center
05:45AM 64.4667 -146.8167 125° Southeast 400 460 19,000 2,880 Climbing Anchorage Center
05:46AM 64.4000 -146.5833 123° Southeast 410 472 22,000 2,700 Climbing Anchorage Center
05:47AM 64.3500 -146.3667 118° Southeast 430 495 24,400 2,400 Climbing Anchorage Center
05:48AM 64.2667 -146.1167 127° Southeast 430 495 26,800 2,100 Climbing Anchorage Center
05:49AM 64.2000 -145.8833 123° Southeast 440 506 28,700 1,980 Climbing Anchorage Center
05:50AM 64.1333 -145.6667 125° Southeast 450 518 30,900 2,040 Climbing Anchorage Center
05:51AM 64.0667 -145.4167 121° Southeast 440 506 32,800 1,620 Climbing Anchorage Center
05:52AM 64.0000 -145.1833 123° Southeast 450 518 34,200 1,440 Climbing Anchorage Center
05:53AM 63.9167 -144.9500 129° Southeast 450 518 35,800 1,320 Climbing Anchorage Center
05:54AM 63.8500 -144.7167 123° Southeast 450 518 36,900 1,320 Climbing Anchorage Center
05:55AM 63.7833 -144.4667 121° Southeast 450 518 38,500 1,020 Climbing Anchorage Center
05:56AM 63.7167 -144.2500 125° Southeast 440 506 39,000 240 Climbing Anchorage Center
05:57AM 63.6333 -144.0333 131° Southeast 450 518 39,000  Level Anchorage Center
05:58AM 63.5667 -143.8167 125° Southeast 460 529 39,000  Level Anchorage Center
05:59AM 63.5000 -143.5833 123° Southeast 450 518 39,000  Level Anchorage Center
06:00AM 63.4333 -143.3500 122° Southeast 450 518 39,000  Level Anchorage Center
06:01AM 63.3500 -143.1333 131° Southeast 450 518 39,000  Level Anchorage Center
06:02AM 63.2833 -142.9000 122° Southeast 440 506 39,000  Level Anchorage Center
06:03AM 63.2000 -142.6833 130° Southeast 450 518 39,000  Level Anchorage Center
06:04AM 63.1333 -142.4667 124° Southeast 450 518 39,000  Level Anchorage Center
06:05AM 63.0667 -142.2333 122° Southeast 430 495 39,000  Level Anchorage Center
06:06AM 62.9833 -142.0333 132° Southeast 440 506 39,000  Level Anchorage Center
06:07AM 62.9000 -141.8167 130° Southeast 440 506 39,000  Level Anchorage Center
06:08AM 62.8167 -141.6500 138° Southeast 430 495 39,000  Level Anchorage Center
06:09AM 62.7167 -141.4667 140° Southeast 430 495 39,000  Level Anchorage Center
06:10AM 62.6333 -141.3000 137° Southeast 440 506 39,000  Level Anchorage Center
06:11AM 62.5333 -141.1167 140° Southeast 440 506 39,000  Level Anchorage Center
06:12AM 62.4667 -140.9333 128° Southeast 430 495 39,000  Level Anchorage Center
06:13AM 62.3333 -140.7500 147° Southeast 420 483 39,000  Level Anchorage Center
06:14AM 62.2667 -140.6167 137° Southeast 420 483 39,000  Level Anchorage Center
06:18AM 61.8333 -139.8333 141° Southeast 440 506 39,000  Level Anchorage Center
06:21AM 61.5500 -139.3500 137° Southeast 440 506 39,000  Level Anchorage Center
06:22AM 61.4500 -139.1833 141° Southeast 450 518 39,000  Level Anchorage Center
06:23AM 61.5137 -139.2751 140° Southeast  Level FlightAware Approximate
06:23AM 61.3500 -139.0167 141° Southeast 440 506 39,000  Level Anchorage Center
06:24AM 61.4239 -139.1210 141° Southeast  Level FlightAware Approximate
06:24AM 61.2500 -138.8833 147° Southeast 450 518 39,000  Level Anchorage Center
06:25AM 61.1500 -138.7333 144° Southeast 450 518 39,000  Level Anchorage Center
06:26AM 61.0333 -138.6000 151° Southeast 450 518 39,000  Level Anchorage Center
06:27AM 60.9333 -138.4667 147° Southeast 440 506 39,000  Level Anchorage Center
06:28AM 60.8333 -138.3333 147° Southeast 440 506 39,000  Level Anchorage Center
06:29AM 60.7333 -138.2000 147° Southeast 450 518 39,000  Level Anchorage Center
06:30AM 60.6167 -138.0667 151° Southeast 450 518 39,000  Level Anchorage Center
06:31AM 60.5167 -137.9333 147° Southeast 440 506 39,000  Level Anchorage Center
06:32AM 60.4167 -137.8000 147° Southeast 440 506 39,000  Level Anchorage Center
06:33AM 60.3167 -137.6667 147° Southeast 440 506 39,000  Level Anchorage Center
06:34AM 60.2000 -137.5500 154° Southeast 440 506 39,000  Level Anchorage Center
06:35AM 60.1000 -137.4167 146° Southeast 430 495 39,000  Level Anchorage Center
06:36AM 60.0000 -137.3000 150° Southeast 430 495 39,000  Level Anchorage Center
06:37AM 59.8833 -137.1833 153° Southeast 440 506 39,000  Level Anchorage Center
06:38AM 59.7833 -137.0500 146° Southeast 430 495 39,000  Level Anchorage Center
06:39AM 59.6833 -136.9333 149° Southeast 430 495 39,000  Level Anchorage Center
06:40AM 59.5833 -136.8167 149° Southeast 430 495 39,000  Level Anchorage Center
06:41AM 59.4833 -136.7000 149° Southeast 430 495 39,000  Level Anchorage Center
06:42AM 59.3833 -136.5833 149° Southeast 440 506 39,000  Level Anchorage Center
06:43AM 59.2833 -136.4667 149° Southeast 430 495 39,000  Level Anchorage Center
06:44AM 59.1833 -136.3500 149° Southeast 430 495 39,000  Level Anchorage Center
06:45AM 59.0833 -136.2333 149° Southeast 430 495 39,000  Level Anchorage Center
06:46AM 58.9667 -136.1167 153° Southeast 440 506 39,000  Level Anchorage Center
06:47AM 58.8667 -136.0000 149° Southeast 440 506 39,000  Level Anchorage Center
06:48AM 58.7500 -135.8833 153° Southeast 450 518 39,000  Level Anchorage Center
06:49AM 58.6500 -135.7667 149° Southeast 450 518 39,000  Level Anchorage Center
06:50AM 58.5500 -135.6500 149° Southeast 440 506 39,000  Level Anchorage Center
06:51AM 58.4333 -135.5333 152° Southeast 450 518 39,000  Level Anchorage Center
06:52AM 58.3333 -135.4167 149° Southeast 440 506 39,000  Level Anchorage Center
06:53AM 58.2167 -135.3000 152° Southeast 440 506 39,000  Level Anchorage Center
06:54AM 58.1167 -135.1500 142° Southeast 450 518 39,000  Level Anchorage Center
06:55AM 58.0167 -135.0000 142° Southeast 440 506 39,000  Level Anchorage Center
06:56AM 57.9333 -134.8500 136° Southeast 450 518 39,000  Level Anchorage Center
06:57AM 57.8333 -134.6833 138° Southeast 450 518 39,000  Level Anchorage Center
06:58AM 57.7500 -134.5333 136° Southeast 440 506 39,000  Level Anchorage Center
06:59AM 57.6500 -134.3833 141° Southeast 450 518 39,000  Level Anchorage Center
07:00AM 57.5500 -134.2333 141° Southeast 440 506 39,000  Level Anchorage Center
07:01AM 57.4667 -134.0833 136° Southeast 440 506 39,000  Level Anchorage Center
07:02AM 57.3667 -133.9333 141° Southeast 450 518 39,000  Level Anchorage Center
07:03AM 57.2667 -133.7833 141° Southeast 450 518 39,000  Level Anchorage Center
07:04AM 57.1667 -133.6333 141° Southeast 450 518 39,000  Level Anchorage Center
07:05AM 57.0667 -133.4667 138° Southeast 440 506 39,000  Level Anchorage Center
07:06AM 56.9667 -133.3333 144° Southeast 440 506 39,000  Level Anchorage Center
07:07AM 56.8833 -133.2000 139° Southeast 430 495 39,000  Level Anchorage Center
07:08AM 56.7833 -133.0500 141° Southeast 450 518 39,000  Level Anchorage Center
07:09AM 56.6833 -132.9000 140° Southeast 450 518 39,000  Level Anchorage Center
07:10AM 56.5833 -132.7500 140° Southeast 450 518 39,000  Level Anchorage Center
07:11AM 56.5000 -132.6167 139° Southeast 450 518 39,000  Level Anchorage Center
07:12AM 56.4000 -132.4667 140° Southeast 450 518 39,000  Level Anchorage Center
07:13AM 56.3000 -132.3333 143° Southeast 450 518 39,000  Level Anchorage Center
07:14AM 56.2000 -132.1833 140° Southeast 440 506 39,100 240 Climbing Anchorage Center
07:15AM 56.1167 -132.0500 138° Southeast 440 506 39,600 480 Climbing Anchorage Center
07:16AM 56.0167 -131.9000 140° Southeast 440 506 40,100 480 Climbing Anchorage Center
07:17AM 55.9167 -131.7667 143° Southeast 450 518 40,600 420 Climbing Anchorage Center
07:18AM 55.8167 -131.6333 143° Southeast 450 518 41,000 180 Climbing Anchorage Center
07:19AM 55.7333 -131.5000 138° Southeast 440 506 41,000  Level Anchorage Center
07:20AM 55.6333 -131.3500 140° Southeast 450 518 41,000  Level Anchorage Center
07:21AM 55.5333 -131.2167 143° Southeast 440 506 41,000  Level Anchorage Center
07:22AM 55.4333 -131.0833 143° Southeast 430 495 41,000  Level Anchorage Center
07:23AM 55.3500 -130.9667 141° Southeast 430 495 41,000  Level Anchorage Center
07:24AM 55.2500 -130.8333 143° Southeast 440 506 41,000  Level Anchorage Center
07:25AM 55.1500 -130.7000 143° Southeast 440 506 41,000  Level Anchorage Center
07:27AM 55.0333 -130.5833 150° Southeast 440 506 41,000  Level Vancouver Center
07:28AM 54.9167 -130.4167 141° Southeast 450 518 41,000  Level Vancouver Center
07:29AM 54.8333 -130.3167 145° Southeast 450 518 41,000  Level Vancouver Center
07:30AM 54.7333 -130.1833 142° Southeast 450 518 41,000  Level Vancouver Center
07:31AM 54.6167 -130.0500 146° Southeast 460 529 41,000  Level Vancouver Center
07:32AM 54.5333 -129.9167 137° Southeast 450 518 41,000  Level Vancouver Center
07:33AM 54.4167 -129.7667 143° Southeast 460 529 41,000  Level Vancouver Center
07:34AM 54.3333 -129.6333 137° Southeast 460 529 41,000  Level Vancouver Center
07:35AM 54.2167 -129.5000 146° Southeast 460 529 41,000  Level Vancouver Center
07:36AM 54.1167 -129.3833 146° Southeast 460 529 41,000  Level Vancouver Center
07:37AM 54.0333 -129.2500 137° Southeast 460 529 41,000  Level Vancouver Center
07:38AM 53.9167 -129.1333 149° Southeast 460 529 41,000  Level Vancouver Center
07:39AM 53.8167 -129.0000 142° Southeast 460 529 41,000  Level Vancouver Center
07:40AM 53.7000 -128.8667 146° Southeast 460 529 41,000  Level Vancouver Center
07:41AM 53.6167 -128.7500 140° Southeast 460 529 41,000  Level Vancouver Center
07:42AM 53.5000 -128.6333 149° Southeast 460 529 41,000  Level Vancouver Center
07:43AM 53.4000 -128.5000 141° Southeast 460 529 41,000  Level Vancouver Center
07:44AM 53.3000 -128.3500 138° Southeast 450 518 41,000  Level Vancouver Center
07:45AM 53.2000 -128.2500 149° Southeast 450 518 41,000  Level Vancouver Center
07:46AM 53.0833 -128.1333 149° Southeast 460 529 41,000  Level Vancouver Center
07:47AM 52.9833 -127.9833 138° Southeast 460 529 41,000  Level Vancouver Center
07:48AM 52.9000 -127.8667 140° Southeast 460 529 41,000  Level Vancouver Center
07:49AM 52.7833 -127.7500 149° Southeast 460 529 41,000  Level Vancouver Center
07:50AM 52.6667 -127.6167 145° Southeast 460 529 41,000  Level Vancouver Center
07:51AM 52.5667 -127.5000 145° Southeast 460 529 41,000  Level Vancouver Center
07:52AM 52.4500 -127.3833 149° Southeast 460 529 41,000  Level Vancouver Center
07:53AM 52.3667 -127.2667 139° Southeast 460 529 41,000  Level Vancouver Center
07:54AM 52.2500 -127.1500 149° Southeast 460 529 41,000  Level Vancouver Center
07:55AM 52.1500 -127.0333 144° Southeast 460 529 41,000  Level Vancouver Center
07:56AM 52.0500 -126.9167 144° Southeast 460 529 41,000  Level Vancouver Center
07:57AM 51.9333 -126.8000 148° Southeast 460 529 41,000  Level Vancouver Center
07:58AM 51.8333 -126.6833 144° Southeast 460 529 41,000  Level Vancouver Center
07:59AM 51.7333 -126.5667 144° Southeast 460 529 41,000  Level Vancouver Center
08:00AM 51.6333 -126.4667 148° Southeast 470 541 41,000  Level Vancouver Center
08:01AM 51.5167 -126.3167 141° Southeast 470 541 41,000  Level Vancouver Center
08:02AM 51.4000 -126.2000 148° Southeast 470 541 41,000  Level Vancouver Center
08:03AM 51.3000 -126.1000 148° Southeast 470 541 41,000  Level Vancouver Center
08:04AM 51.1833 -125.9833 148° Southeast 470 541 41,000  Level Vancouver Center
08:05AM 51.0667 -125.8667 148° Southeast 470 541 41,000  Level Vancouver Center
08:06AM 50.9833 -125.7667 143° Southeast 460 529 41,000  Level Vancouver Center
08:07AM 50.8833 -125.6500 144° Southeast 460 529 41,000  Level Vancouver Center
08:08AM 50.7667 -125.5167 144° Southeast 460 529 41,000  Level Vancouver Center
08:09AM 50.6667 -125.4000 144° Southeast 460 529 41,000  Level Vancouver Center
08:10AM 50.5500 -125.3000 151° Southeast 460 529 41,000  Level Vancouver Center
08:11AM 50.4333 -125.1833 147° Southeast 460 529 41,000  Level Vancouver Center
08:12AM 50.3333 -125.0833 147° Southeast 460 529 41,000  Level Vancouver Center
08:13AM 50.2167 -124.9667 147° Southeast 460 529 41,000  Level Vancouver Center
08:14AM 50.1167 -124.8667 147° Southeast 470 541 41,000  Level Vancouver Center
08:15AM 50.0000 -124.7667 151° Southeast 470 541 41,000  Level Vancouver Center
08:16AM 49.8833 -124.6333 144° Southeast 470 541 41,000  Level Vancouver Center
08:17AM 49.7833 -124.5167 143° Southeast 470 541 41,000  Level Vancouver Center
08:18AM 49.6667 -124.4167 151° Southeast 470 541 41,000  Level Vancouver Center
08:19AM 49.5500 -124.3167 151° Southeast 470 541 41,000 -60 Level Vancouver Center
08:20AM 49.4500 -124.1833 139° Southeast 470 541 40,900 -600 Descending Vancouver Center
08:21AM 49.3333 -124.0833 151° Southeast 460 529 39,900 -960 Descending Vancouver Center
08:22AM 49.2333 -123.9833 147° Southeast 470 541 39,000 -1,200 Descending Vancouver Center
08:23AM 49.1167 -123.8833 151° Southeast 460 529 37,600 -1,620 Descending Vancouver Center
08:24AM 49.0167 -123.7667 143° Southeast 450 518 35,800 -2,160 Descending Vancouver Center
08:25AM 48.9167 -123.6667 147° Southeast 430 495 33,300 -2,400 Descending Vancouver Center
08:26AM 48.8167 -123.6000 156° South 430 495 31,000 -2,340 Descending Vancouver Center
08:27AM 48.7167 -123.5000 147° Southeast 420 483 28,700 -2,280 Descending Vancouver Center
08:28AM 48.6167 -123.4000 147° Southeast 420 483 26,500 -2,280 Descending Vancouver Center
08:29AM 48.5167 -123.3000 146° Southeast 410 472 24,200 -2,220 Descending Vancouver Center
08:30AM 48.4333 -123.2167 146° Southeast 390 449 22,100 -2,100 Descending Vancouver Center
08:31AM 48.3333 -123.1500 156° South 390 449 20,100 -2,040 Descending Vancouver Center
08:32AM 48.2500 -123.0500 141° Southeast 370 426 18,100 -1,980 Descending Vancouver Center
08:33AM 48.1667 -122.9667 146° Southeast 360 414 16,200 -2,100 Descending Vancouver Center
08:34AM 48.0747 -122.8714 145° Southeast 353 406 13,300 -2,160 Descending Seattle Center
08:35AM 48.0328 -122.7517 118° Southeast 357 411 11,400 -1,740 Descending Seattle Center
08:36AM 47.9775 -122.6356 125° Southeast 341 392 10,000 -1,260 Descending Seattle Center
08:37AM 47.9272 -122.5261 124° Southeast 287 330 8,800 -780 Descending Seattle Center
08:38AM 47.8861 -122.4331 123° Southeast 254 292 8,400 -600 Descending Seattle Center
08:39AM 47.8561 -122.3736 127° Southeast 249 287 7,700 -1,020 Descending Seattle Center
08:39AM 47.8322 -122.3508 147° Southeast 237 273 7,300 -1,020 Descending Seattle Center
08:40AM 47.7906 -122.3161 151° Southeast 231 266 6,700 -840 Descending Seattle Center
08:40AM 47.7778 -122.3117 167° South 218 251 6,500 -900 Descending Seattle Center
08:41AM 47.7314 -122.3061 175° South 217 250 5,800 -900 Descending Seattle Center
08:41AM 47.7192 -122.3078 185° South 210 242 5,600 -840 Descending Seattle Center
08:42AM 47.6739 -122.3069 179° South 213 245 5,000 -720 Descending Seattle Center
08:42AM 47.6611 -122.3069 180° South 204 235 4,900 -900 Descending Seattle Center
08:43AM 47.6242 -122.3064 179° South 189 217 4,100 -1,020 Descending Seattle Center
08:43AM 47.6125 -122.3078 185° South 181 208 3,900 -1,320 Descending Seattle Center
08:44AM 47.5742 -122.3069 179° South 184 212 2,800 -1,380 Descending Seattle Center
08:44AM 47.5617 -122.3094 188° South 174 200 2,500 -1,140 Descending Seattle Center
08:45AM 47.5269 -122.3078 178° South 171 197 1,700 -1,020 Descending Seattle Center
08:45AM 47.5169 -122.3081 181° South 161 185 1,500 -720 Descending Seattle Center
08:46AM 47.4867 -122.3075 179° South 150 173 1,000 -840 Descending Seattle Center
08:46AM 47.4794 -122.3089 187° South 137 158 700 -600 Descending Seattle Center
08:47AM 47.4481 -122.3083 179° South 136 157 400 -420 Descending Seattle Center
08:49AM 47.4499 -122.3118 North  Level Estimated